createdAt,value
2022-11-24T00:02:01.171Z,10.02
2022-11-24T00:04:30.298Z,10.01
2022-11-24T00:06:59.301Z,10.02
2022-11-24T00:09:28.246Z,9.97
2022-11-24T00:11:58.403Z,9.93
2022-11-24T00:14:27.616Z,9.89
2022-11-24T00:16:56.885Z,9.87
2022-11-24T00:19:29.077Z,9.83
2022-11-24T00:21:58.541Z,9.79
2022-11-24T00:24:27.373Z,9.74
2022-11-24T00:26:56.228Z,9.72
2022-11-24T00:29:25.457Z,9.65
2022-11-24T00:31:54.481Z,9.60
2022-11-24T00:34:23.834Z,9.52
2022-11-24T00:36:52.934Z,9.49
2022-11-24T00:39:21.963Z,9.47
2022-11-24T00:41:51.065Z,9.44
2022-11-24T00:44:22.505Z,9.42
2022-11-24T00:46:51.804Z,9.40
2022-11-24T00:49:25.830Z,9.36
2022-11-24T00:52:16.256Z,9.30
2022-11-24T00:55:32.257Z,9.22
2022-11-24T00:58:14.013Z,9.08
2022-11-24T01:00:50.918Z,9.06
2022-11-24T01:04:48.884Z,9.12
2022-11-24T01:07:00.979Z,9.12
2022-11-24T01:09:40.210Z,9.05
2022-11-24T01:12:09.831Z,9.02
2022-11-24T01:14:49.410Z,8.96
2022-11-24T01:17:34.332Z,8.89
2022-11-24T01:20:03.957Z,8.88
2022-11-24T01:22:36.098Z,8.88
2022-11-24T01:25:05.838Z,8.88
2022-11-24T01:27:35.269Z,8.83
2022-11-24T01:30:06.177Z,8.74
2022-11-24T01:32:43.923Z,8.74
2022-11-24T01:35:20.085Z,8.77
2022-11-24T01:37:49.356Z,8.67
2022-11-24T01:40:20.183Z,8.65
2022-11-24T01:42:54.126Z,8.58
2022-11-24T01:45:39.578Z,8.53
2022-11-24T01:48:58.850Z,8.53
2022-11-24T01:51:34.899Z,8.52
2022-11-24T01:54:31.502Z,8.48
2022-11-24T01:57:27.296Z,8.46
2022-11-24T02:00:12.204Z,8.48
2022-11-24T02:02:46.246Z,8.49
2022-11-24T02:05:39.289Z,8.43
2022-11-24T02:08:39.968Z,8.35
2022-11-24T02:11:19.879Z,8.28
2022-11-24T02:14:03.686Z,8.05
2022-11-24T02:16:35.587Z,7.89
2022-11-24T02:19:24.612Z,7.69
2022-11-24T02:21:53.955Z,7.64
2022-11-24T02:24:40.712Z,7.52
2022-11-24T02:27:12.112Z,7.89
2022-11-24T02:29:42.026Z,7.84
2022-11-24T02:32:12.171Z,7.99
2022-11-24T02:34:41.250Z,8.09
2022-11-24T02:37:10.496Z,8.14
2022-11-24T02:39:41.621Z,7.99
2022-11-24T02:42:15.271Z,8.02
2022-11-24T02:44:52.427Z,8.02
2022-11-24T02:47:21.901Z,8.12
2022-11-24T02:49:54.293Z,8.09
2022-11-24T02:52:23.803Z,8.02
2022-11-24T02:54:56.057Z,7.90
2022-11-24T02:57:27.690Z,8.02
2022-11-24T02:59:56.949Z,8.03
2022-11-24T03:02:26.273Z,8.00
2022-11-24T03:04:55.201Z,7.96
2022-11-24T03:07:24.418Z,7.93
2022-11-24T03:09:53.339Z,7.93
2022-11-24T03:12:22.189Z,7.91
2022-11-24T03:14:51.042Z,7.85
2022-11-24T03:17:19.903Z,7.82
2022-11-24T03:19:48.905Z,7.82
2022-11-24T03:22:18.226Z,7.82
2022-11-24T03:24:47.195Z,7.79
2022-11-24T03:27:16.141Z,7.66
2022-11-24T03:29:46.271Z,7.65
2022-11-24T03:32:15.446Z,7.64
2022-11-24T03:35:53.940Z,7.61
2022-11-24T03:38:40.308Z,7.54
2022-11-24T03:41:15.546Z,7.30
2022-11-24T03:43:59.476Z,7.17
2022-11-24T03:46:40.733Z,7.37
2022-11-24T03:49:10.888Z,7.30
2022-11-24T03:51:39.790Z,7.34
2022-11-24T03:54:10.041Z,7.26
2022-11-24T03:56:38.939Z,7.07
2022-11-24T03:59:07.827Z,7.21
2022-11-24T04:01:37.425Z,6.96
2022-11-24T04:04:13.750Z,6.93
2022-11-24T04:06:42.699Z,6.80
2022-11-24T04:09:11.835Z,7.04
2022-11-24T04:12:02.130Z,7.11
2022-11-24T04:14:30.958Z,7.00
2022-11-24T04:17:00.105Z,6.93
2022-11-24T04:19:30.190Z,6.77
2022-11-24T04:21:59.322Z,6.68
2022-11-24T04:24:28.463Z,6.44
2022-11-24T04:26:57.514Z,6.50
2022-11-24T04:29:27.046Z,6.62
2022-11-24T04:31:56.458Z,6.46
2022-11-24T04:34:25.630Z,6.55
2022-11-24T04:36:55.215Z,6.64
2022-11-24T04:39:28.565Z,6.80
2022-11-24T04:41:58.055Z,6.86
2022-11-24T04:44:27.102Z,6.89
2022-11-24T04:47:02.053Z,6.87
2022-11-24T04:49:31.503Z,6.85
2022-11-24T04:52:00.863Z,6.82
2022-11-24T04:54:30.369Z,6.83
2022-11-24T04:56:59.446Z,6.84
2022-11-24T04:59:28.580Z,6.88
2022-11-24T05:02:05.292Z,6.85
2022-11-24T05:04:34.646Z,6.85
2022-11-24T05:07:17.929Z,6.87
2022-11-24T05:10:17.129Z,6.84
2022-11-24T05:12:51.149Z,6.77
2022-11-24T05:15:31.180Z,6.79
2022-11-24T05:18:00.374Z,6.91
2022-11-24T05:20:30.533Z,6.98
2022-11-24T05:23:03.936Z,7.03
2022-11-24T05:25:35.862Z,6.98
2022-11-24T05:28:07.034Z,6.95
2022-11-24T05:30:37.237Z,6.87
2022-11-24T05:33:13.031Z,6.81
2022-11-24T05:35:41.983Z,6.45
2022-11-24T05:38:10.980Z,6.66
2022-11-24T05:40:40.224Z,6.56
2022-11-24T05:43:17.428Z,6.61
2022-11-24T05:45:46.730Z,6.63
2022-11-24T05:48:17.103Z,6.68
2022-11-24T05:50:46.126Z,6.87
2022-11-24T05:53:29.967Z,6.88
2022-11-24T05:56:05.162Z,6.85
2022-11-24T05:58:34.352Z,6.59
2022-11-24T06:01:07.979Z,6.30
2022-11-24T06:03:37.048Z,6.17
2022-11-24T06:06:06.050Z,6.17
2022-11-24T06:08:35.848Z,6.14
2022-11-24T06:11:40.177Z,6.14
2022-11-24T06:14:11.567Z,6.41
2022-11-24T06:16:42.419Z,6.31
2022-11-24T06:19:13.014Z,6.36
2022-11-24T06:21:43.645Z,6.18
2022-11-24T06:24:12.960Z,6.08
2022-11-24T06:26:44.055Z,6.24
2022-11-24T06:29:13.896Z,6.30
2022-11-24T06:31:43.034Z,6.21
2022-11-24T06:34:15.603Z,6.19
2022-11-24T06:36:44.555Z,5.83
2022-11-24T06:39:13.741Z,5.84
2022-11-24T06:41:43.003Z,6.02
2022-11-24T06:44:12.359Z,5.93
2022-11-24T06:46:41.654Z,5.82
2022-11-24T06:49:10.662Z,5.77
2022-11-24T06:51:39.712Z,5.94
2022-11-24T06:54:10.267Z,6.00
2022-11-24T06:56:39.870Z,5.91
2022-11-24T06:59:11.213Z,5.76
2022-11-24T07:01:40.530Z,5.46
2022-11-24T07:04:12.470Z,5.39
2022-11-24T07:06:42.368Z,5.35
2022-11-24T07:09:13.480Z,5.51
2022-11-24T07:11:42.943Z,5.52
2022-11-24T07:14:12.140Z,5.60
2022-11-24T07:16:41.595Z,5.71
2022-11-24T07:19:12.116Z,5.82
2022-11-24T07:21:42.200Z,5.79
2022-11-24T07:24:11.450Z,5.73
2022-11-24T07:26:40.925Z,5.66
2022-11-24T07:29:10.159Z,5.64
2022-11-24T07:31:39.429Z,5.64
2022-11-24T07:34:08.595Z,5.61
2022-11-24T07:36:37.713Z,5.52
2022-11-24T07:39:08.119Z,5.33
2022-11-24T07:41:40.669Z,5.34
2022-11-24T07:44:09.902Z,5.31
2022-11-24T07:46:38.869Z,5.31
2022-11-24T07:49:10.957Z,5.33
2022-11-24T07:51:40.160Z,5.51
2022-11-24T07:54:09.326Z,5.49
2022-11-24T07:56:39.101Z,5.50
2022-11-24T07:59:08.295Z,5.52
2022-11-24T08:01:40.353Z,5.53
2022-11-24T08:04:13.978Z,5.52
2022-11-24T08:06:50.532Z,5.54
2022-11-24T08:09:23.204Z,5.54
2022-11-24T08:11:52.397Z,5.54
2022-11-24T08:14:21.459Z,5.52
2022-11-24T08:16:50.377Z,5.44
2022-11-24T08:19:19.273Z,5.45
2022-11-24T08:21:48.644Z,5.21
2022-11-24T08:24:17.982Z,4.98
2022-11-24T08:26:47.449Z,4.97
2022-11-24T08:29:16.480Z,5.02
2022-11-24T08:31:45.643Z,4.97
2022-11-24T08:34:14.740Z,4.93
2022-11-24T08:36:44.738Z,4.75
2022-11-24T08:39:14.221Z,4.71
2022-11-24T08:41:46.322Z,4.47
2022-11-24T08:44:19.013Z,4.76
2022-11-24T08:46:48.003Z,4.90
2022-11-24T08:49:17.482Z,4.96
2022-11-24T08:51:49.319Z,4.99
2022-11-24T08:54:19.671Z,5.03
2022-11-24T08:56:50.915Z,5.05
2022-11-24T08:59:20.314Z,5.04
2022-11-24T09:01:50.030Z,5.02
2022-11-24T09:04:19.287Z,4.99
2022-11-24T09:06:48.183Z,5.02
2022-11-24T09:09:17.389Z,4.98
2022-11-24T09:11:46.229Z,4.94
2022-11-24T09:14:15.234Z,5.03
2022-11-24T09:16:44.237Z,5.01
2022-11-24T09:19:16.595Z,5.02
2022-11-24T09:21:47.220Z,5.05
2022-11-24T09:24:21.712Z,5.01
2022-11-24T09:26:53.924Z,4.90
2022-11-24T09:29:26.091Z,4.76
2022-11-24T09:31:55.179Z,4.79
2022-11-24T09:34:24.633Z,4.70
2022-11-24T09:36:53.710Z,4.52
2022-11-24T09:39:22.987Z,4.60
2022-11-24T09:42:02.222Z,4.70
2022-11-24T09:44:55.262Z,4.66
2022-11-24T09:47:47.403Z,4.98
2022-11-24T09:50:24.027Z,5.06
2022-11-24T09:52:55.658Z,5.06
2022-11-24T09:55:53.580Z,5.01
2022-11-24T09:58:42.519Z,4.97
2022-11-24T10:01:30.870Z,5.00
2022-11-24T10:04:13.491Z,5.05
2022-11-24T10:06:47.306Z,4.73
2022-11-24T10:09:47.251Z,4.97
2022-11-24T10:12:46.756Z,4.98
2022-11-24T10:15:23.328Z,4.96
2022-11-24T10:18:16.478Z,4.86
2022-11-24T10:21:05.452Z,4.85
2022-11-24T10:24:03.118Z,4.83
2022-11-24T10:26:54.415Z,4.52
2022-11-24T10:29:36.659Z,4.56
2022-11-24T10:32:34.335Z,4.77
2022-11-24T10:35:18.078Z,4.91
2022-11-24T10:37:57.198Z,4.81
2022-11-24T10:40:59.352Z,4.85
2022-11-24T10:43:21.276Z,4.85
2022-11-24T10:45:52.005Z,4.69
2022-11-24T10:48:29.320Z,4.82
2022-11-24T10:51:40.925Z,4.80
2022-11-24T10:54:23.521Z,4.65
2022-11-24T10:56:57.199Z,4.43
2022-11-24T10:59:28.218Z,4.44
2022-11-24T11:01:59.328Z,4.49
2022-11-24T11:04:36.205Z,4.51
2022-11-24T11:07:21.213Z,4.45
2022-11-24T11:09:50.896Z,4.38
2022-11-24T11:12:43.484Z,4.49
2022-11-24T11:15:31.519Z,4.39
2022-11-24T11:18:02.422Z,4.44
2022-11-24T11:20:36.218Z,4.42
2022-11-24T11:23:17.767Z,4.44
2022-11-24T11:25:49.365Z,4.35
2022-11-24T11:28:27.384Z,4.34
2022-11-24T11:31:18.067Z,4.30
2022-11-24T11:34:20.481Z,4.30
2022-11-24T11:36:53.951Z,4.25
2022-11-24T11:39:36.393Z,4.22
2022-11-24T11:43:00.169Z,4.23
2022-11-24T11:45:48.025Z,4.17
2022-11-24T11:48:42.292Z,4.15
2022-11-24T11:51:40.471Z,4.05
2022-11-24T11:54:21.572Z,4.06
2022-11-24T11:56:59.400Z,3.91
2022-11-24T11:59:51.145Z,3.80
2022-11-24T12:02:29.151Z,3.71
2022-11-24T12:05:02.148Z,3.55
2022-11-24T12:08:17.534Z,3.64
2022-11-24T12:11:01.228Z,3.36
2022-11-24T12:13:42.008Z,3.63
2022-11-24T12:16:34.188Z,3.63
2022-11-24T12:19:28.842Z,3.27
2022-11-24T12:22:19.525Z,3.15
2022-11-24T12:24:57.997Z,3.01
2022-11-24T12:27:39.929Z,3.06
2022-11-24T12:30:25.737Z,2.99
2022-11-24T12:33:39.985Z,2.97
2022-11-24T12:36:46.709Z,3.08
2022-11-24T12:39:28.044Z,2.98
2022-11-24T12:42:11.111Z,2.96
2022-11-24T12:45:09.882Z,2.84
2022-11-24T12:47:39.388Z,2.89
2022-11-24T12:50:23.837Z,2.85
2022-11-24T12:53:04.926Z,2.95
2022-11-24T12:55:34.944Z,3.15
2022-11-24T12:58:25.879Z,2.96
2022-11-24T13:01:26.083Z,2.62
2022-11-24T13:04:19.012Z,2.33
2022-11-24T13:07:04.007Z,2.46
2022-11-24T13:09:33.066Z,2.72
2022-11-24T13:12:16.097Z,2.91
2022-11-24T13:14:51.506Z,2.97
2022-11-24T13:17:50.263Z,2.92
2022-11-24T13:20:33.152Z,2.71
2022-11-24T13:23:26.271Z,2.74
2022-11-24T13:26:27.800Z,2.81
2022-11-24T13:29:23.876Z,2.62
2022-11-24T13:32:18.461Z,2.58
2022-11-24T13:34:57.615Z,2.47
2022-11-24T13:37:34.857Z,2.59
2022-11-24T13:40:14.767Z,2.48
2022-11-24T13:42:59.289Z,2.59
2022-11-24T13:45:44.013Z,2.71
2022-11-24T13:48:22.619Z,2.48
2022-11-24T13:50:52.213Z,2.50
2022-11-24T13:53:33.520Z,2.29
2022-11-24T13:56:16.483Z,2.61
2022-11-24T13:58:50.396Z,2.61
2022-11-24T14:01:31.971Z,2.64
2022-11-24T14:04:30.906Z,2.68
2022-11-24T14:07:08.316Z,2.70
2022-11-24T14:09:48.277Z,2.84
2022-11-24T14:12:22.428Z,2.77
2022-11-24T14:15:13.079Z,2.34
2022-11-24T14:17:42.312Z,2.19
2022-11-24T14:20:35.156Z,2.39
2022-11-24T14:23:05.527Z,2.55
2022-11-24T14:25:36.855Z,2.35
2022-11-24T14:28:36.432Z,2.46
2022-11-24T14:31:19.151Z,2.37
2022-11-24T14:33:52.477Z,2.30
2022-11-24T14:36:23.243Z,2.12
2022-11-24T14:38:55.488Z,2.25
2022-11-24T14:41:29.532Z,2.38
2022-11-24T14:44:07.252Z,2.37
2022-11-24T14:46:37.657Z,2.13
2022-11-24T14:49:10.204Z,1.98
2022-11-24T14:51:45.539Z,2.11
2022-11-24T14:54:27.614Z,2.21
2022-11-24T14:57:06.095Z,2.09
2022-11-24T14:59:39.032Z,1.98
2022-11-24T15:02:56.625Z,1.87
2022-11-24T15:05:27.779Z,2.25
2022-11-24T15:08:04.358Z,2.18
2022-11-24T15:10:39.942Z,2.02
2022-11-24T15:13:20.383Z,2.21
2022-11-24T15:16:03.380Z,2.32
2022-11-24T15:18:50.131Z,2.23
2022-11-24T15:21:34.945Z,2.47
2022-11-24T15:24:19.138Z,2.63
2022-11-24T15:26:48.504Z,2.54
2022-11-24T15:29:17.334Z,2.58
2022-11-24T15:31:50.974Z,2.63
2022-11-24T15:34:22.090Z,2.64
2022-11-24T15:36:51.188Z,2.72
2022-11-24T15:39:20.582Z,2.47
2022-11-24T15:41:49.790Z,2.65
2022-11-24T15:44:21.591Z,2.70
2022-11-24T15:46:51.007Z,2.69
2022-11-24T15:49:29.050Z,2.63
2022-11-24T15:52:01.096Z,2.38
2022-11-24T15:54:30.654Z,2.45
2022-11-24T15:57:00.803Z,2.61
2022-11-24T15:59:33.364Z,2.53
2022-11-24T16:02:03.843Z,2.52
2022-11-24T16:04:36.409Z,2.74
2022-11-24T16:07:09.559Z,2.63
2022-11-24T16:09:42.805Z,2.67
2022-11-24T16:12:11.937Z,2.54
2022-11-24T16:14:43.390Z,2.64
2022-11-24T16:17:15.187Z,2.50
2022-11-24T16:19:53.308Z,2.55
2022-11-24T16:22:48.321Z,2.31
2022-11-24T16:25:17.732Z,2.41
2022-11-24T16:27:48.816Z,2.40
2022-11-24T16:30:17.981Z,2.54
2022-11-24T16:32:55.902Z,2.63
2022-11-24T16:35:24.960Z,2.65
2022-11-24T16:37:59.039Z,2.37
2022-11-24T16:40:32.949Z,2.20
2022-11-24T16:43:02.954Z,2.15
2022-11-24T16:45:34.053Z,2.12
2022-11-24T16:48:06.069Z,2.00
2022-11-24T16:50:35.210Z,2.02
2022-11-24T16:53:04.176Z,2.18
2022-11-24T16:55:33.357Z,2.63
2022-11-24T16:58:05.460Z,2.76
2022-11-24T17:00:34.598Z,2.66
2022-11-24T17:03:07.075Z,2.92
2022-11-24T17:05:36.153Z,2.91
2022-11-24T17:08:07.652Z,3.09
2022-11-24T17:10:53.828Z,3.14
2022-11-24T17:13:24.110Z,3.06
2022-11-24T17:15:54.526Z,3.15
2022-11-24T17:18:29.769Z,3.19
2022-11-24T17:21:07.814Z,3.16
2022-11-24T17:23:39.143Z,2.98
2022-11-24T17:26:16.723Z,3.15
2022-11-24T17:28:46.352Z,3.16
2022-11-24T17:31:28.078Z,3.24
2022-11-24T17:33:58.700Z,3.03
2022-11-24T17:36:36.387Z,2.96
2022-11-24T17:39:10.564Z,3.02
2022-11-24T17:41:39.972Z,3.22
2022-11-24T17:44:18.377Z,3.04
2022-11-24T17:46:48.956Z,3.42
2022-11-24T17:49:25.128Z,3.26
2022-11-24T17:52:03.182Z,3.43
2022-11-24T17:54:50.743Z,3.35
2022-11-24T17:57:24.592Z,3.44
2022-11-24T17:59:54.263Z,3.54
2022-11-24T18:02:25.201Z,3.55
2022-11-24T18:04:56.422Z,3.35
2022-11-24T18:07:45.628Z,3.68
2022-11-24T18:10:29.838Z,3.40
2022-11-24T18:13:22.368Z,3.40
2022-11-24T18:15:53.383Z,3.55
2022-11-24T18:18:25.635Z,3.58
2022-11-24T18:21:08.490Z,3.65
2022-11-24T18:23:39.632Z,3.59
2022-11-24T18:26:15.755Z,3.25
2022-11-24T18:28:47.721Z,3.51
2022-11-24T18:31:27.258Z,3.62
2022-11-24T18:34:04.382Z,3.77
2022-11-24T18:36:47.927Z,4.22
2022-11-24T18:39:20.047Z,4.35
2022-11-24T18:41:49.071Z,4.57
2022-11-24T18:44:18.030Z,4.91
2022-11-24T18:46:46.908Z,5.08
2022-11-24T18:49:15.796Z,5.29
2022-11-24T18:51:44.930Z,5.52
2022-11-24T18:54:15.334Z,5.47
2022-11-24T18:56:44.766Z,5.65
2022-11-24T18:59:13.530Z,6.09
2022-11-24T19:01:42.535Z,6.14
2022-11-24T19:04:12.493Z,6.01
2022-11-24T19:06:41.464Z,6.38
2022-11-24T19:09:17.978Z,6.60
2022-11-24T19:11:47.565Z,6.69
2022-11-24T19:14:18.749Z,6.98
2022-11-24T19:16:50.964Z,7.04
2022-11-24T19:19:20.081Z,7.16
2022-11-24T19:21:48.968Z,7.52
2022-11-24T19:24:18.030Z,7.28
2022-11-24T19:26:46.949Z,7.13
2022-11-24T19:29:16.302Z,7.30
2022-11-24T19:31:45.431Z,7.42
2022-11-24T19:34:16.959Z,7.45
2022-11-24T19:36:45.930Z,7.72
2022-11-24T19:39:16.348Z,8.32
2022-11-24T19:41:45.967Z,8.71
2022-11-24T19:44:15.139Z,8.64
2022-11-24T19:46:49.949Z,9.01
2022-11-24T19:49:24.615Z,8.93
2022-11-24T19:51:54.672Z,8.16
2022-11-24T19:54:23.609Z,8.63
2022-11-24T19:56:54.166Z,8.46
2022-11-24T19:59:24.677Z,8.81
2022-11-24T20:01:55.077Z,9.26
2022-11-24T20:04:24.150Z,9.37
2022-11-24T20:06:58.163Z,9.80
2022-11-24T20:09:30.197Z,9.97
2022-11-24T20:12:03.520Z,10.20
2022-11-24T20:14:38.353Z,10.53
2022-11-24T20:17:11.226Z,10.81
2022-11-24T20:20:22.219Z,11.11
2022-11-24T20:30:12.716Z,10.98
2022-11-24T20:31:57.143Z,11.55
2022-11-24T20:34:33.054Z,11.67
2022-11-24T20:37:35.435Z,12.02
2022-11-24T20:40:21.225Z,12.53
2022-11-24T20:42:59.138Z,12.89
2022-11-24T20:45:59.566Z,13.00
2022-11-24T20:48:52.990Z,12.85
2022-11-24T20:51:25.049Z,12.67
2022-11-24T20:54:02.349Z,13.26
2022-11-24T20:56:34.676Z,13.59
2022-11-24T20:59:05.344Z,13.80
2022-11-24T21:01:46.450Z,13.17
2022-11-24T21:04:22.255Z,13.17
2022-11-24T21:06:51.348Z,12.54
2022-11-24T21:09:20.903Z,12.76
2022-11-24T21:11:58.958Z,13.09
2022-11-24T21:14:35.258Z,13.35
2022-11-24T21:17:13.120Z,13.52
2022-11-24T21:23:32.454Z,12.50
2022-11-24T21:26:18.073Z,13.20
2022-11-24T21:28:56.894Z,13.12
2022-11-24T21:31:37.438Z,14.18
2022-11-24T21:34:11.770Z,13.24
2022-11-24T21:37:09.705Z,13.39
2022-11-24T21:39:39.476Z,12.74
2022-11-24T21:42:10.570Z,13.69
2022-11-24T21:44:51.000Z,13.81
2022-11-24T21:47:21.750Z,13.22
2022-11-24T21:49:56.078Z,12.93
2022-11-24T21:53:28.801Z,13.16
2022-11-24T22:00:02.135Z,13.27
2022-11-24T22:03:05.070Z,12.94
2022-11-24T22:06:12.178Z,12.71
2022-11-24T22:08:41.906Z,12.20
2022-11-24T22:11:19.244Z,12.53
2022-11-24T22:21:34.467Z,11.97
2022-11-24T22:24:04.694Z,12.18
2022-11-24T22:26:40.737Z,12.44
2022-11-24T22:29:11.915Z,12.08
2022-11-24T22:31:41.198Z,11.82
2022-11-24T22:34:15.336Z,11.99
2022-11-24T22:36:44.394Z,12.11
2022-11-24T22:39:19.145Z,12.56
2022-11-24T22:41:48.433Z,12.56
2022-11-24T22:44:17.345Z,13.04
2022-11-24T22:46:46.419Z,13.18
2022-11-24T22:49:15.388Z,13.28
2022-11-24T22:51:44.334Z,13.30
2022-11-24T22:54:14.591Z,13.23
2022-11-24T22:56:43.584Z,13.18
2022-11-24T23:04:07.873Z,13.12
2022-11-24T23:07:43.172Z,12.82
2022-11-24T23:10:44.612Z,12.75
2022-11-24T23:13:16.632Z,12.70
2022-11-24T23:15:45.686Z,12.61
2022-11-24T23:18:15.251Z,12.44
2022-11-24T23:21:02.230Z,12.25
2022-11-24T23:23:41.126Z,12.17
2022-11-24T23:26:22.541Z,12.03
2022-11-24T23:29:13.070Z,12.03
2022-11-24T23:31:52.178Z,11.98
2022-11-24T23:34:23.365Z,12.06
2022-11-24T23:36:58.767Z,12.01
2022-11-24T23:39:35.651Z,11.89
2022-11-24T23:42:11.057Z,11.65
2022-11-24T23:44:40.035Z,11.62
2022-11-24T23:47:08.927Z,11.53
2022-11-24T23:49:37.946Z,11.37
2022-11-24T23:52:06.806Z,11.17
2022-11-24T23:54:35.883Z,10.82
2022-11-24T23:57:07.419Z,11.02
2022-11-24T23:59:43.030Z,10.87
